Time;durP1;ratioP1;P1;durP2;ratioP2;P2;SDS_P1;SDS_P2;PMS_P1;PMS_P2;Temp;Humidity;BMP_temperature;BMP_pressure;BME280_temperature;BME280_humidity;BME280_pressure;Samples;Min_cycle;Max_cycle;Signal;HPM_P1;HPM_P2
2022/01/12 00:00:12;;;;;;;;;75.50;53.50;;;;;2.37;79.51;103417.41;5030688;28;45569;-68
2022/01/12 00:02:38;;;;;;;;;72.25;54.75;;;;;2.38;79.30;103411.13;5037832;28;45324;-68
2022/01/12 00:05:03;;;;;;;;;73.00;54.50;;;;;2.38;79.22;103403.97;5033159;28;45390;-68
2022/01/12 00:07:29;;;;;;;;;75.00;56.00;;;;;2.37;78.69;103402.19;5038500;28;45489;-68
2022/01/12 00:09:54;;;;;;;;;77.00;58.00;;;;;2.39;78.81;103394.13;5026933;28;46861;-68
2022/01/12 00:12:19;;;;;;;;;80.75;51.00;;;;;2.38;78.60;103400.41;5039222;28;45337;-68
2022/01/12 00:14:45;;;;;;;;;71.50;53.50;;;;;2.32;78.76;103399.63;5029353;28;45302;-68
2022/01/12 00:17:10;;;;;;;;;69.25;48.75;;;;;2.30;78.65;103401.44;5037832;28;45298;-68
2022/01/12 00:19:35;;;;;;;;;76.00;52.00;;;;;2.27;78.75;103404.16;5022146;28;46337;-68
2022/01/12 00:22:01;;;;;;;;;66.50;48.25;;;;;2.32;78.89;103415.72;5037083;28;45319;-67
2022/01/12 00:24:38;;;;;;;;;67.50;51.50;;;;;2.31;79.23;103411.25;5029933;28;45534;-68
2022/01/12 00:35:16;;;;;;;;;69.25;53.00;;;;;2.20;79.46;103412.34;5026455;28;45251;-68
2022/01/12 00:37:41;;;;;;;;;64.50;51.25;;;;;2.18;79.66;103407.06;5033711;28;45689;-68
2022/01/12 00:40:07;;;;;;;;;74.00;52.75;;;;;2.19;79.09;103402.56;5020795;28;47277;-68
2022/01/12 00:42:32;;;;;;;;;75.50;56.50;;;;;2.19;79.61;103414.16;5032917;28;45658;-67
2022/01/12 00:45:01;;;;;;;;;74.75;47.75;;;;;2.15;79.54;103415.13;5029376;28;45432;-67
2022/01/12 00:47:26;;;;;;;;;70.50;50.50;;;;;2.20;79.53;103432.03;5033790;28;45449;-67
2022/01/12 00:49:52;;;;;;;;;64.50;48.25;;;;;2.22;79.45;103426.63;5029416;28;45341;-67
2022/01/12 00:52:17;;;;;;;;;68.25;51.50;;;;;2.24;79.55;103431.06;5034625;28;45413;-67
2022/01/12 00:54:42;;;;;;;;;73.25;53.50;;;;;2.19;79.71;103434.75;5030768;28;45219;-67
2022/01/12 00:57:08;;;;;;;;;71.25;52.00;;;;;2.04;80.02;103435.03;5036052;28;45512;-67
2022/01/12 00:59:33;;;;;;;;;68.25;48.75;;;;;2.06;80.34;103444.81;5024755;28;46836;-67
2022/01/12 01:01:58;;;;;;;;;70.25;55.25;;;;;2.12;80.50;103457.25;5036814;28;45397;-67
2022/01/12 01:04:25;;;;;;;;;67.25;52.25;;;;;2.17;80.27;103477.69;5033070;28;45292;-67
2022/01/12 01:06:51;;;;;;;;;69.50;55.25;;;;;2.25;80.33;103466.81;5038421;28;45468;-67
2022/01/12 01:09:16;;;;;;;;;67.00;54.25;;;;;2.27;80.38;103465.88;5031836;28;46191;-67
2022/01/12 01:11:42;;;;;;;;;67.75;53.75;;;;;2.29;80.17;103466.72;5032455;28;45342;-67
2022/01/12 01:14:16;;;;;;;;;66.25;49.75;;;;;2.42;80.34;103477.22;5034643;28;45345;-67
2022/01/12 01:27:21;;;;;;;;;79.00;61.00;;;;;2.18;80.74;103487.50;5040621;28;45298;-67
2022/01/12 01:29:48;;;;;;;;;68.50;52.75;;;;;2.09;80.83;103489.47;5017581;28;47176;-67
2022/01/12 01:32:13;;;;;;;;;84.00;57.50;;;;;2.06;81.50;103494.88;5024377;28;45655;-67
2022/01/12 01:34:44;;;;;;;;;74.25;58.25;;;;;2.08;81.03;103495.75;5025143;28;45317;-67
2022/01/12 01:37:10;;;;;;;;;71.00;50.75;;;;;2.07;81.40;103491.28;5033164;28;45459;-67
2022/01/12 01:39:35;;;;;;;;;77.25;58.00;;;;;2.14;81.22;103501.88;5035860;28;45322;-67
2022/01/12 01:42:08;;;;;;;;;79.25;58.50;;;;;2.05;81.31;103504.72;5036333;28;45272;-67
2022/01/12 01:55:34;;;;;;;;;69.25;51.00;;;;;2.05;82.03;103501.13;5034492;28;45282;-67
2022/01/12 01:57:59;;;;;;;;;69.75;53.50;;;;;2.17;82.02;103500.94;5045820;28;45643;-67
2022/01/12 02:00:31;;;;;;;;;63.25;45.00;;;;;2.20;80.86;103496.38;5036194;28;47315;-67
2022/01/12 02:02:57;;;;;;;;;73.25;58.00;;;;;2.26;80.92;103498.09;5046481;28;45329;-66
2022/01/12 02:05:24;;;;;;;;;68.00;54.75;;;;;2.35;80.60;103506.84;5028702;28;45374;-66
2022/01/12 02:07:49;;;;;;;;;77.50;54.25;;;;;2.34;80.35;103505.06;5047302;28;45310;-67
2022/01/12 02:10:15;;;;;;;;;75.00;56.75;;;;;2.29;80.09;103496.22;5030092;28;45460;-67
2022/01/12 02:12:40;;;;;;;;;81.50;55.50;;;;;1.99;80.48;103507.50;5046353;28;45341;-67
2022/01/12 02:15:32;;;;;;;;;78.00;57.50;;;;;1.64;81.70;103525.97;5033070;28;45405;-67
2022/01/12 02:39:47;;;;;;;;;92.50;62.25;;;;;1.87;81.31;103478.22;5032059;28;45365;-66
2022/01/12 02:39:54;;;;;;;;;73.75;55.75;;;;;1.70;82.06;103472.25;5033977;28;45552;-67
2022/01/12 02:42:19;;;;;;;;;66.75;52.50;;;;;1.83;82.72;103460.41;5033476;28;45960;-67
2022/01/12 02:55:43;;;;;;;;;66.50;52.00;;;;;2.02;80.99;103432.38;5028687;28;45409;-67
2022/01/12 02:58:08;;;;;;;;;63.75;50.75;;;;;2.14;80.86;103452.72;5040217;28;45251;-66
2022/01/12 03:01:04;;;;;;;;;70.50;51.75;;;;;2.17;80.88;103453.56;5032165;28;45352;-67
2022/01/12 03:03:34;;;;;;;;;72.25;53.25;;;;;2.13;80.41;103456.31;5029995;28;47137;-67
2022/01/12 03:06:02;;;;;;;;;67.50;49.75;;;;;2.13;80.92;103465.22;5029555;28;45377;-67
2022/01/12 03:08:29;;;;;;;;;72.00;53.00;;;;;2.14;80.31;103469.69;5040808;28;45359;-67
2022/01/12 03:10:54;;;;;;;;;69.00;49.00;;;;;2.12;80.39;103474.19;5035435;28;45381;-67
2022/01/12 03:13:21;;;;;;;;;69.00;48.75;;;;;2.08;80.52;103491.25;5041728;28;46495;-67
2022/01/12 03:15:48;;;;;;;;;74.25;50.25;;;;;2.05;80.83;103496.66;5028285;28;45294;-67
2022/01/12 03:18:15;;;;;;;;;71.25;54.25;;;;;1.95;80.86;103495.06;5051269;28;45394;-67
2022/01/12 03:20:41;;;;;;;;;66.00;49.25;;;;;1.75;81.63;103491.84;5027501;28;45575;-67
2022/01/12 03:23:07;;;;;;;;;65.00;49.25;;;;;1.58;82.30;103500.16;5043534;28;45987;-67
2022/01/12 03:25:32;;;;;;;;;75.00;53.25;;;;;1.58;82.23;103510.88;5026529;28;45341;-67
2022/01/12 03:28:01;;;;;;;;;72.75;54.50;;;;;1.52;82.60;103505.59;5040102;28;45247;-68
2022/01/12 03:30:34;;;;;;;;;68.00;52.75;;;;;1.59;82.88;103485.84;5027042;28;45464;-66
2022/01/12 03:33:10;;;;;;;;;69.00;49.00;;;;;1.68;82.79;103495.53;5059889;28;47551;-67
2022/01/12 03:35:49;;;;;;;;;57.50;44.50;;;;;1.83;82.40;103492.56;5024543;28;45264;-66
2022/01/12 03:38:21;;;;;;;;;65.50;46.50;;;;;1.91;82.04;103493.34;5035441;28;45516;-66
2022/01/12 03:40:48;;;;;;;;;73.50;53.00;;;;;1.95;81.50;103485.25;5027247;28;45363;-69
2022/01/12 03:43:13;;;;;;;;;67.00;48.00;;;;;2.01;81.33;103494.06;5036650;28;45235;-67
2022/01/12 03:45:39;;;;;;;;;65.25;46.25;;;;;1.99;80.74;103490.53;5027847;28;45307;-66
2022/01/12 03:48:05;;;;;;;;;67.25;51.50;;;;;1.85;80.81;103488.09;5036393;28;45400;-66
2022/01/12 03:50:30;;;;;;;;;71.75;46.25;;;;;1.91;81.01;103496.91;5028833;28;45454;-66
2022/01/12 03:52:55;;;;;;;;;59.50;46.25;;;;;1.94;80.96;103495.97;5038326;28;45265;-66
2022/01/12 03:55:21;;;;;;;;;61.75;46.50;;;;;1.99;80.83;103507.50;5029991;28;45397;-66
2022/01/12 03:57:46;;;;;;;;;61.00;45.75;;;;;2.03;80.80;103519.06;5053445;28;45439;-66
2022/01/12 04:00:12;;;;;;;;;64.75;46.75;;;;;1.92;80.42;103517.44;5032600;28;45426;-66
2022/01/12 04:02:39;;;;;;;;;61.00;46.00;;;;;1.85;81.19;103530.97;5037800;28;45462;-67
2022/01/12 04:10:14;;;;;;;;;68.25;42.75;;;;;2.06;80.47;103540.47;5026028;28;45486;-66
2022/01/12 04:12:39;;;;;;;;;66.25;49.25;;;;;1.92;79.73;103535.31;5040042;28;45908;-66
2022/01/12 04:15:05;;;;;;;;;62.00;45.00;;;;;1.91;80.77;103546.97;5027525;28;45455;-66
2022/01/12 04:17:30;;;;;;;;;67.25;43.25;;;;;1.88;80.66;103553.28;5036036;28;45455;-66
2022/01/12 04:19:56;;;;;;;;;63.00;49.00;;;;;1.87;81.13;103562.22;5025558;28;45366;-67
2022/01/12 04:25:06;;;;;;;;;65.25;49.75;;;;;1.72;82.13;103565.13;5025037;28;45385;-66
2022/01/12 04:27:32;;;;;;;;;67.75;50.25;;;;;1.79;82.41;103582.00;5041160;28;45413;-66
2022/01/12 04:29:57;;;;;;;;;75.75;50.00;;;;;1.72;82.51;103578.53;5024238;28;45640;-67
2022/01/12 04:32:24;;;;;;;;;71.50;51.00;;;;;1.53;83.15;103569.84;5029212;28;46380;-66
2022/01/12 04:34:50;;;;;;;;;68.25;51.75;;;;;1.65;82.80;103581.34;5029523;28;45337;-67
2022/01/12 04:37:16;;;;;;;;;64.25;45.25;;;;;1.75;82.61;103572.25;5030305;28;45831;-66
2022/01/12 04:39:41;;;;;;;;;67.25;46.25;;;;;1.87;82.57;103583.66;5030232;28;45450;-67
2022/01/12 04:42:07;;;;;;;;;69.50;51.25;;;;;1.94;82.00;103593.38;5031237;28;46305;-66
2022/01/12 04:44:32;;;;;;;;;72.00;50.00;;;;;1.80;82.26;103583.78;5030762;28;45392;-66
2022/01/12 04:47:07;;;;;;;;;53.25;44.75;;;;;1.71;82.27;103592.84;5031084;28;45449;-66
2022/01/12 04:52:10;;;;;;;;;71.25;46.50;;;;;1.86;82.70;103581.91;5027539;28;45381;-66
2022/01/12 04:54:35;;;;;;;;;51.50;35.75;;;;;1.89;82.18;103576.50;5027582;28;45496;-66
2022/01/12 04:57:00;;;;;;;;;65.25;48.75;;;;;1.81;81.87;103580.19;5027723;28;46504;-67
2022/01/12 04:59:26;;;;;;;;;67.50;50.75;;;;;1.80;82.57;103591.81;5031913;28;45479;-67
2022/01/12 05:01:57;;;;;;;;;62.75;49.00;;;;;1.78;82.47;103588.28;5035949;28;46617;-67
2022/01/12 05:14:55;;;;;;;;;66.00;50.00;;;;;2.07;82.03;103618.22;5021525;28;45307;-67
2022/01/12 05:17:21;;;;;;;;;66.75;45.25;;;;;2.06;81.48;103594.97;5022480;28;46705;-67
2022/01/12 05:19:46;;;;;;;;;62.00;45.75;;;;;2.13;81.30;103595.75;5037218;28;45661;-67
2022/01/12 05:22:11;;;;;;;;;55.00;43.25;;;;;2.15;80.99;103577.84;5021998;28;48301;-68
2022/01/12 05:24:37;;;;;;;;;63.75;47.50;;;;;2.16;80.66;103576.94;5022737;28;45804;-68
2022/01/12 05:27:02;;;;;;;;;55.25;43.75;;;;;2.18;79.99;103567.09;5037335;28;45461;-67
2022/01/12 05:29:27;;;;;;;;;61.75;46.75;;;;;2.19;80.40;103567.03;5025772;28;45479;-68
2022/01/12 05:31:53;;;;;;;;;56.75;41.25;;;;;2.18;80.68;103565.28;5023601;28;46328;-68
2022/01/12 05:34:18;;;;;;;;;58.25;46.00;;;;;2.13;80.06;103572.50;5031041;28;45474;-67
2022/01/12 05:36:44;;;;;;;;;52.50;43.00;;;;;2.05;80.13;103565.50;5022443;28;45630;-68
2022/01/12 05:39:09;;;;;;;;;56.50;46.25;;;;;2.09;80.04;103565.44;5031779;28;45532;-67
2022/01/12 05:41:34;;;;;;;;;60.25;45.50;;;;;2.08;79.96;103582.44;5023515;28;45467;-67
2022/01/12 05:44:00;;;;;;;;;56.50;37.00;;;;;2.06;79.76;103568.16;5028721;28;45899;-67
2022/01/12 05:46:27;;;;;;;;;50.00;35.25;;;;;2.05;79.84;103582.47;5024548;28;45513;-67
2022/01/12 05:51:38;;;;;;;;;54.00;45.25;;;;;2.13;80.42;103566.25;5027629;28;45866;-67
2022/01/12 05:54:03;;;;;;;;;64.25;48.00;;;;;2.13;80.41;103572.50;5032971;28;45508;-67
2022/01/12 05:56:29;;;;;;;;;64.25;47.25;;;;;2.15;79.70;103583.22;5031457;28;45571;-67
2022/01/12 05:58:54;;;;;;;;;61.75;49.75;;;;;2.10;79.92;103595.84;5033101;28;44891;-68
2022/01/12 06:01:20;;;;;;;;;72.50;51.00;;;;;2.01;80.15;103586.13;5047617;28;48158;-67
2022/01/12 06:03:46;;;;;;;;;62.50;46.25;;;;;2.02;80.37;103593.28;5035542;28;45463;-68
2022/01/12 06:06:11;;;;;;;;;65.25;51.00;;;;;2.01;80.60;103604.91;5033503;28;45414;-68
2022/01/12 06:08:36;;;;;;;;;66.50;48.75;;;;;1.98;80.65;103601.38;5037422;28;45417;-67
2022/01/12 06:11:02;;;;;;;;;57.75;45.25;;;;;1.98;81.04;103596.88;5039658;28;46942;-67
2022/01/12 06:13:27;;;;;;;;;68.75;47.25;;;;;2.04;81.12;103591.47;5038141;28;45310;-67
2022/01/12 06:15:53;;;;;;;;;60.75;44.50;;;;;2.03;80.89;103581.63;5025508;28;45240;-67
2022/01/12 06:18:18;;;;;;;;;68.00;50.25;;;;;2.01;81.14;103591.50;5039268;28;45521;-67
2022/01/12 06:20:44;;;;;;;;;63.00;46.00;;;;;2.07;81.17;103595.88;5039577;28;47492;-67
2022/01/12 06:23:09;;;;;;;;;77.50;53.25;;;;;1.94;80.62;103595.19;5042055;28;45308;-67
2022/01/12 06:25:35;;;;;;;;;66.00;46.25;;;;;1.98;81.01;103586.16;5027786;28;45758;-67
2022/01/12 06:28:19;;;;;;;;;66.25;49.00;;;;;2.07;80.94;103579.78;5038656;28;45407;-67
2022/01/12 06:33:28;;;;;;;;;66.25;47.00;;;;;2.14;80.47;103576.97;5036404;28;45333;-67
2022/01/12 06:35:54;;;;;;;;;67.75;47.25;;;;;2.16;80.21;103585.00;5027475;28;45381;-67
2022/01/12 06:38:21;;;;;;;;;62.75;47.00;;;;;2.19;80.21;103591.19;5037544;28;45206;-67
2022/01/12 06:40:46;;;;;;;;;65.75;49.75;;;;;2.20;80.03;103584.03;5036501;28;46688;-67
2022/01/12 06:43:12;;;;;;;;;66.00;43.50;;;;;2.22;79.99;103591.13;5052995;28;45545;-67
2022/01/12 06:45:39;;;;;;;;;63.75;48.25;;;;;2.18;79.91;103605.53;5028405;28;45479;-67
2022/01/12 06:48:05;;;;;;;;;65.50;48.25;;;;;2.12;80.64;103615.47;5037296;28;45334;-67
2022/01/12 06:50:30;;;;;;;;;60.50;44.50;;;;;2.09;80.34;103616.41;5028685;28;45435;-67
2022/01/12 06:52:55;;;;;;;;;52.00;44.25;;;;;2.16;80.49;103607.34;5038889;28;45333;-68
2022/01/12 06:55:20;;;;;;;;;63.50;49.25;;;;;2.22;80.56;103595.63;5024722;28;45349;-67
2022/01/12 06:57:46;;;;;;;;;63.50;45.50;;;;;2.27;80.38;103599.09;5038565;28;45472;-67
2022/01/12 07:00:12;;;;;;;;;59.50;46.50;;;;;2.27;80.18;103613.41;5033324;28;45480;-67
2022/01/12 07:02:37;;;;;;;;;63.75;47.75;;;;;2.26;80.14;103603.59;5035828;28;45284;-68
2022/01/12 07:05:03;;;;;;;;;55.50;44.50;;;;;2.28;79.72;103608.91;5032927;28;45403;-68
2022/01/12 07:07:28;;;;;;;;;53.50;43.50;;;;;2.25;79.84;103592.91;5053832;28;45574;-68
2022/01/12 07:09:54;;;;;;;;;56.75;42.00;;;;;2.31;79.67;103596.34;5028085;28;45476;-68
2022/01/12 07:12:19;;;;;;;;;62.00;47.50;;;;;2.22;80.08;103585.78;5037404;28;45243;-68
2022/01/12 07:14:44;;;;;;;;;62.25;48.00;;;;;2.27;79.93;103593.72;5030771;28;45461;-69
2022/01/12 07:17:12;;;;;;;;;60.25;46.00;;;;;2.26;80.34;103579.47;5036651;28;45497;-68
2022/01/12 07:19:37;;;;;;;;;61.25;45.00;;;;;2.28;79.86;103580.31;5025701;28;46425;-68
2022/01/12 07:22:03;;;;;;;;;69.00;49.50;;;;;2.16;80.36;103585.88;5037106;28;45346;-68
2022/01/12 07:24:30;;;;;;;;;70.50;50.50;;;;;2.21;80.66;103586.69;5044808;28;45414;-68
2022/01/12 07:26:55;;;;;;;;;65.25;45.25;;;;;2.30;80.49;103589.22;5052719;28;45472;-67
2022/01/12 07:29:20;;;;;;;;;54.75;44.25;;;;;2.32;80.54;103583.84;5025000;28;47009;-66
2022/01/12 07:31:46;;;;;;;;;66.25;49.50;;;;;2.37;80.17;103600.72;5023455;28;45806;-68
2022/01/12 07:34:14;;;;;;;;;66.00;49.75;;;;;2.37;79.81;103610.56;5035667;28;45460;-68
2022/01/12 07:36:40;;;;;;;;;52.50;41.25;;;;;2.32;79.60;103608.88;5023460;28;45352;-68
2022/01/12 07:39:05;;;;;;;;;67.00;48.25;;;;;2.38;79.96;103609.66;5034655;28;45651;-68
2022/01/12 07:41:31;;;;;;;;;61.75;49.75;;;;;2.37;80.23;103607.88;5026717;28;45250;-68
2022/01/12 07:43:56;;;;;;;;;51.75;42.00;;;;;2.35;79.92;103610.59;5036015;28;45735;-68
2022/01/12 07:46:21;;;;;;;;;68.75;49.25;;;;;2.37;79.82;103632.03;5027450;28;45473;-68
2022/01/12 07:48:47;;;;;;;;;68.25;46.75;;;;;2.40;80.01;103640.94;5036766;28;45494;-68
2022/01/12 07:51:12;;;;;;;;;60.00;44.00;;;;;2.37;80.11;103649.03;5028354;28;45328;-68
2022/01/12 07:53:38;;;;;;;;;62.50;45.75;;;;;2.41;80.22;103644.50;5025030;28;45294;-67
2022/01/12 07:56:03;;;;;;;;;68.00;54.75;;;;;2.19;80.21;103652.00;5025128;28;45472;-67
2022/01/12 07:58:28;;;;;;;;;58.75;47.75;;;;;2.13;80.93;103650.28;5039179;28;45419;-67
2022/01/12 08:00:54;;;;;;;;;72.50;51.00;;;;;2.27;80.93;103663.47;5030145;28;45324;-67
2022/01/12 08:03:20;;;;;;;;;73.00;50.75;;;;;2.33;80.94;103661.63;5039865;28;45631;-68
2022/01/12 08:05:46;;;;;;;;;76.50;53.75;;;;;2.40;80.44;103665.09;5030387;28;45447;-67
2022/01/12 08:08:12;;;;;;;;;62.50;47.75;;;;;2.43;80.49;103661.44;5039295;28;48060;-67
2022/01/12 08:10:38;;;;;;;;;64.25;46.25;;;;;2.39;80.42;103668.66;5034436;28;45239;-67
2022/01/12 08:13:03;;;;;;;;;79.75;54.25;;;;;2.35;80.89;103674.97;5041728;28;45425;-67
2022/01/12 08:15:28;;;;;;;;;80.75;56.25;;;;;2.38;80.89;103684.78;5019232;28;45792;-66
2022/01/12 08:17:54;;;;;;;;;70.00;52.75;;;;;2.42;80.97;103697.22;5035940;28;45587;-67
2022/01/12 08:20:25;;;;;;;;;76.00;54.75;;;;;2.43;80.84;103699.00;5024754;28;45278;-67
2022/01/12 08:22:50;;;;;;;;;78.75;54.50;;;;;2.58;80.77;103706.81;5057964;28;45299;-68
2022/01/12 08:25:15;;;;;;;;;77.75;58.25;;;;;2.56;80.27;103714.00;5024748;28;45255;-67
2022/01/12 08:27:41;;;;;;;;;76.50;56.50;;;;;2.55;80.21;103713.13;5039085;28;47498;-67
2022/01/12 08:30:15;;;;;;;;;78.75;55.75;;;;;2.51;80.39;103715.88;5023510;28;45304;-68
2022/01/12 08:32:41;;;;;;;;;68.75;53.00;;;;;2.59;80.57;103722.00;5018890;28;45457;-67
2022/01/12 08:35:07;;;;;;;;;75.25;54.25;;;;;2.63;80.35;103721.06;5029030;28;45449;-67
2022/01/12 08:37:32;;;;;;;;;65.75;48.25;;;;;2.66;80.09;103721.88;5046344;28;47524;-67
2022/01/12 08:39:58;;;;;;;;;75.50;54.75;;;;;2.71;79.87;103720.00;5027315;28;45204;-66
2022/01/12 08:42:23;;;;;;;;;77.00;55.50;;;;;2.74;80.01;103719.06;5031315;28;45282;-68
2022/01/12 08:44:48;;;;;;;;;55.25;25.75;;;;;2.69;79.91;103726.34;5028437;28;45435;-67
2022/01/12 08:47:14;;;;;;;;;75.75;52.75;;;;;2.73;80.14;103733.41;5032543;28;45232;-67
2022/01/12 08:49:40;;;;;;;;;69.25;52.75;;;;;2.81;79.44;103719.84;5028810;28;45297;-68
2022/01/12 08:52:06;;;;;;;;;79.25;56.75;;;;;2.74;79.71;103713.72;5029139;28;45456;-67
2022/01/12 08:54:31;;;;;;;;;78.00;56.25;;;;;2.64;79.50;103723.69;5024209;28;45454;-68
2022/01/12 08:56:56;;;;;;;;;70.25;57.00;;;;;2.67;79.57;103722.78;5034139;28;48005;-67
2022/01/12 08:59:22;;;;;;;;;77.75;60.00;;;;;2.80;79.91;103726.13;5031832;28;45406;-67
2022/01/12 09:01:48;;;;;;;;;72.25;54.00;;;;;2.87;79.55;103734.06;5052199;28;45367;-67
2022/01/12 09:04:13;;;;;;;;;78.50;58.25;;;;;2.99;79.01;103730.28;5033417;28;45319;-68
2022/01/12 09:06:39;;;;;;;;;81.00;57.50;;;;;2.92;78.76;103740.22;5019815;28;47160;-68
2022/01/12 09:09:05;;;;;;;;;76.00;54.75;;;;;2.88;79.23;103749.25;5034019;28;45450;-68
2022/01/12 09:11:30;;;;;;;;;69.50;55.00;;;;;3.02;79.14;103741.84;5029679;28;45321;-68
2022/01/12 09:13:56;;;;;;;;;78.00;56.50;;;;;3.16;79.23;103743.41;5035911;28;45328;-67
2022/01/12 09:16:21;;;;;;;;;84.25;58.75;;;;;3.25;78.49;103748.63;5030320;28;45336;-68
2022/01/12 09:18:46;;;;;;;;;76.00;54.25;;;;;3.21;78.12;103752.28;5028782;28;45390;-68
2022/01/12 09:21:12;;;;;;;;;79.75;58.00;;;;;3.34;77.79;103764.56;5031608;28;45453;-68
2022/01/12 09:23:38;;;;;;;;;32.00;19.75;;;;;3.36;77.92;103773.50;5038411;28;45454;-68
2022/01/12 09:26:04;;;;;;;;;79.25;57.00;;;;;3.46;77.83;103781.34;5028493;28;45321;-68
2022/01/12 09:28:31;;;;;;;;;82.50;55.75;;;;;3.53;77.63;103783.00;5032748;28;45287;-68
2022/01/12 09:30:56;;;;;;;;;78.75;60.50;;;;;3.42;77.00;103795.78;5033284;28;45372;-68
2022/01/12 09:33:22;;;;;;;;;77.00;58.25;;;;;3.38;77.21;103798.53;5033686;28;45560;-68
2022/01/12 09:35:49;;;;;;;;;83.75;59.00;;;;;3.45;77.01;103803.75;5023436;28;47434;-68
2022/01/12 09:38:19;;;;;;;;;81.50;59.75;;;;;3.48;76.72;103792.97;5034672;28;45358;-68
2022/01/12 09:40:45;;;;;;;;;77.00;56.50;;;;;3.48;77.04;103802.81;5025112;28;45176;-68
2022/01/12 09:43:12;;;;;;;;;83.25;59.25;;;;;3.61;77.09;103806.16;5036140;28;45441;-68
2022/01/12 09:45:39;;;;;;;;;84.00;61.50;;;;;3.76;76.73;103809.44;5041573;28;47186;-68
2022/01/12 09:48:05;;;;;;;;;78.50;59.00;;;;;3.75;76.01;103814.84;5036428;28;45410;-68
2022/01/12 09:50:31;;;;;;;;;88.50;62.50;;;;;3.78;75.99;103817.50;5027538;28;45334;-68
2022/01/12 09:52:56;;;;;;;;;78.00;58.75;;;;;3.90;76.26;103815.44;5037546;28;45325;-69
2022/01/12 09:55:22;;;;;;;;;75.25;58.75;;;;;4.02;76.17;103810.75;5029502;28;45408;-68
2022/01/12 09:57:47;;;;;;;;;73.00;54.75;;;;;4.12;75.68;103804.22;5037431;28;45606;-68
2022/01/12 10:00:21;;;;;;;;;66.50;51.75;;;;;4.14;74.83;103797.91;5035686;28;45400;-68
2022/01/12 10:02:46;;;;;;;;;77.25;59.00;;;;;4.29;74.81;103802.06;5037027;28;45437;-68
2022/01/12 10:05:12;;;;;;;;;77.00;57.75;;;;;4.09;73.93;103805.16;5038685;28;46868;-68
2022/01/12 10:07:37;;;;;;;;;74.75;56.50;;;;;4.15;73.97;103813.13;5052379;28;45311;-68
2022/01/12 10:10:15;;;;;;;;;83.00;60.75;;;;;4.31;74.64;103816.38;5031312;28;45372;-68
2022/01/12 10:12:53;;;;;;;;;62.00;50.75;;;;;4.42;73.87;103822.41;5043280;28;45502;-68
2022/01/12 10:15:18;;;;;;;;;82.00;59.00;;;;;4.52;74.71;103813.22;5042492;28;48225;-68
2022/01/12 10:17:45;;;;;;;;;83.00;59.50;;;;;4.55;73.71;103814.94;5039717;28;45246;-68
2022/01/12 10:20:13;;;;;;;;;72.75;56.50;;;;;4.33;73.00;103819.91;5029201;28;45431;-68
2022/01/12 10:22:44;;;;;;;;;78.50;54.50;;;;;4.38;74.06;103809.97;5060647;28;45514;-68
2022/01/12 10:25:18;;;;;;;;;83.75;59.00;;;;;4.70;73.80;103819.97;5029051;28;45663;-68
2022/01/12 10:27:44;;;;;;;;;75.00;55.75;;;;;4.83;73.42;103815.19;5016014;28;45296;-68
2022/01/12 10:30:20;;;;;;;;;82.00;62.25;;;;;4.56;73.58;103806.84;5025967;28;45437;-69
2022/01/12 10:32:45;;;;;;;;;79.25;58.00;;;;;4.31;73.49;103813.66;5009149;28;45561;-69
2022/01/12 10:35:11;;;;;;;;;67.25;52.75;;;;;4.06;74.23;103807.06;5019095;28;48378;-68
2022/01/12 10:37:36;;;;;;;;;81.25;60.00;;;;;4.35;74.01;103822.56;5032837;28;45364;-68
2022/01/12 10:40:03;;;;;;;;;84.25;65.75;;;;;4.32;74.38;103807.38;5030775;28;45374;-67
2022/01/12 10:42:30;;;;;;;;;76.75;55.50;;;;;4.62;74.19;103808.50;5035931;28;45511;-68
2022/01/12 10:44:57;;;;;;;;;71.00;51.25;;;;;4.74;72.44;103821.69;5031037;28;46115;-68
2022/01/12 10:47:29;;;;;;;;;80.25;54.50;;;;;4.84;72.96;103808.88;5035376;28;45308;-68
2022/01/12 10:49:54;;;;;;;;;75.75;56.75;;;;;4.75;72.24;103814.50;5042154;28;45460;-71
2022/01/12 10:52:20;;;;;;;;;68.25;50.25;;;;;4.60;72.12;103802.28;5037515;28;45345;-72
2022/01/12 10:54:49;;;;;;;;;75.00;53.00;;;;;4.73;73.28;103802.88;5031111;28;47392;-70
2022/01/12 10:57:18;;;;;;;;;78.75;59.75;;;;;4.90;73.20;103800.63;5037658;28;45464;-70
2022/01/12 11:00:08;;;;;;;;;73.00;56.75;;;;;5.16;72.32;103808.97;5033737;28;45273;-68
2022/01/12 11:02:35;;;;;;;;;74.75;52.75;;;;;5.34;72.43;103818.38;5036831;28;45583;-69
2022/01/12 11:05:02;;;;;;;;;78.25;58.00;;;;;5.29;71.29;103805.03;5028286;28;45677;-69
2022/01/12 11:07:30;;;;;;;;;77.50;58.50;;;;;5.36;71.26;103828.22;5037083;28;45460;-69
2022/01/12 11:09:58;;;;;;;;;78.75;56.25;;;;;5.40;71.08;103824.53;5029626;28;45251;-71
2022/01/12 11:12:24;;;;;;;;;66.25;46.00;;;;;5.46;70.46;103818.06;5037696;28;45574;-68
2022/01/12 11:14:50;;;;;;;;;70.50;55.25;;;;;5.42;70.36;103806.47;5033425;28;45423;-69
2022/01/12 11:17:16;;;;;;;;;64.75;54.50;;;;;5.33;70.04;103827.41;5037759;28;45420;-69
2022/01/12 11:20:02;;;;;;;;;65.50;52.75;;;;;5.43;70.14;103820.84;5032355;28;45381;-69
2022/01/12 11:22:27;;;;;;;;;64.50;47.75;;;;;5.49;69.56;103816.16;5041232;28;45395;-68
2022/01/12 11:24:54;;;;;;;;;75.25;55.50;;;;;5.41;69.90;103815.47;5021310;28;47862;-69
2022/01/12 11:27:21;;;;;;;;;40.00;27.75;;;;;5.54;70.66;103805.28;5025640;28;45339;-69
2022/01/12 11:29:47;;;;;;;;;61.75;47.00;;;;;5.45;68.83;103811.78;5025185;28;45417;-66
2022/01/12 11:32:22;;;;;;;;;75.75;55.75;;;;;5.29;69.95;103815.81;5029609;28;45548;-68
2022/01/12 11:34:58;;;;;;;;;67.50;52.75;;;;;5.35;70.40;103804.88;5030957;28;46521;-69
2022/01/12 11:37:24;;;;;;;;;65.00;49.50;;;;;5.54;70.04;103809.78;5031089;28;45510;-65
2022/01/12 11:39:50;;;;;;;;;68.00;53.00;;;;;5.33;69.38;103800.47;5030074;28;45480;-65
2022/01/12 11:42:16;;;;;;;;;72.25;56.00;;;;;5.55;69.66;103803.47;5035251;28;45266;-67
2022/01/12 11:44:41;;;;;;;;;77.50;57.25;;;;;5.48;69.67;103806.31;5024741;28;45751;-68
2022/01/12 11:47:13;;;;;;;;;67.50;49.50;;;;;5.68;69.69;103803.09;5035842;28;45401;-65
2022/01/12 11:49:44;;;;;;;;;57.75;42.75;;;;;5.23;69.53;103794.41;5032343;28;45409;-67
2022/01/12 11:52:15;;;;;;;;;66.00;51.75;;;;;5.30;69.58;103797.81;5037309;28;45492;-67
2022/01/12 11:54:44;;;;;;;;;65.75;51.50;;;;;5.39;69.70;103781.41;5032947;28;46510;-67
2022/01/12 11:57:11;;;;;;;;;67.50;51.25;;;;;5.60;69.96;103788.03;5036543;28;45263;-67
2022/01/12 11:59:53;;;;;;;;;66.50;51.00;;;;;5.75;70.03;103790.31;5031401;28;45233;-68
2022/01/12 12:02:30;;;;;;;;;57.50;46.75;;;;;5.90;70.08;103789.03;5036209;28;45666;-68
2022/01/12 12:04:58;;;;;;;;;66.25;52.25;;;;;5.89;68.82;103790.81;5041267;28;47350;-69
2022/01/12 12:07:25;;;;;;;;;92.25;71.75;;;;;5.80;69.13;103786.53;5037146;28;45391;-68
2022/01/12 12:09:54;;;;;;;;;59.25;45.50;;;;;5.67;68.32;103789.63;5030087;28;45465;-68
2022/01/12 12:12:21;;;;;;;;;64.00;52.50;;;;;5.67;69.87;103784.25;5037825;28;45372;-68
2022/01/12 12:14:55;;;;;;;;;74.00;56.00;;;;;5.64;69.16;103787.91;5032429;28;46176;-68
2022/01/12 12:17:23;;;;;;;;;65.50;52.50;;;;;5.65;69.76;103775.28;5037594;28;45338;-68
2022/01/12 12:19:50;;;;;;;;;76.25;59.00;;;;;5.84;69.34;103774.72;5015053;28;45326;-68
2022/01/12 12:22:18;;;;;;;;;73.50;53.00;;;;;5.67;68.40;103773.44;5031460;28;45374;-68
2022/01/12 12:24:47;;;;;;;;;74.50;55.75;;;;;5.69;69.14;103767.09;5023024;28;46503;-68
2022/01/12 12:27:20;;;;;;;;;71.50;54.25;;;;;5.79;68.89;103773.97;5021682;28;45500;-68
2022/01/12 12:29:48;;;;;;;;;70.75;52.50;;;;;5.90;69.18;103764.72;5033216;28;45340;-68
2022/01/12 12:32:14;;;;;;;;;70.25;53.75;;;;;5.97;69.06;103764.50;5025245;28;45444;-68
2022/01/12 12:34:42;;;;;;;;;69.75;54.50;;;;;6.02;68.01;103759.84;5030532;28;45365;-68
2022/01/12 12:37:10;;;;;;;;;67.25;53.00;;;;;5.92;67.66;103752.09;5029323;28;45243;-68
2022/01/12 12:39:38;;;;;;;;;64.75;52.00;;;;;6.03;68.62;103753.53;5031251;28;45420;-68
2022/01/12 12:42:12;;;;;;;;;73.75;56.75;;;;;6.09;67.61;103745.25;5032237;28;45418;-68